Bbm — CRGT — position and weather

sailwx.info

Track history (hours):
 
Tides and Currents Weather Stations Pressure Air Temp Water Temp Dewpoint Dewpoint Depression Visibility Wind Speed Wind Dir Waves Ship Positions

Bbm

Last reported at 2018-Sep-16 17:43 UTC. Time now 2018-Sep-19 08:51 UTC.
Position N 38°42' W 009°25'.

Length 14 m.

Type: Sailing vessel. MMSI: 263912000.

Date/timePositionNaut miles runAvg speedWind from/ knotsBaromVisibWave heightAir tempDewpointWater temp
2018-Sep-16 17:43N 38°42' W 009°25'0 1.1
2018-Sep-16 17:30N 38°42' W 009°25'2 3.7
2018-Sep-16 16:51N 38°41' W 009°22'0 0.4
2018-Sep-16 16:20N 38°40' W 009°22'2 3.2
2018-Sep-16 15:43N 38°42' W 009°24'1 0.0
2018-Sep-15 14:15N 38°42' W 009°25'0 1.1
2018-Sep-15 13:55N 38°42' W 009°25'2 4.8
2018-Sep-15 13:29N 38°40' W 009°23'3 5.7
2018-Sep-15 13:02N 38°37' W 009°23'0 5.6
2018-Sep-15 13:00N 38°37' W 009°23'1 2.1
2018-Sep-15 12:27N 38°36' W 009°24'2 5.2
2018-Sep-15 12:01N 38°38' W 009°25'0 4.6
2018-Sep-15 11:55N 38°39' W 009°26'3 4.9
2018-Sep-15 11:22N 38°42' W 009°25'0 0.8
2018-Sep-15 10:58N 38°42' W 009°25'  
Track history (hours):
 
Tides and Currents Weather Stations Pressure Air Temp Water Temp Dewpoint Dewpoint Depression Visibility Wind Speed Wind Dir Waves Ship Positions

Bbm

Last reported at 2018-Sep-16 17:43 UTC. Time now 2018-Sep-19 08:51 UTC.
Position N 38°42' W 009°25'.

Length 14 m.

Type: Sailing vessel. MMSI: 263912000.

Date/timePositionNaut miles runAvg speedWind from/ knotsBaromVisibWave heightAir tempDewpointWater temp
2018-Sep-16 17:43N 38°42' W 009°25'0 1.1
2018-Sep-16 17:30N 38°42' W 009°25'2 3.7
2018-Sep-16 16:51N 38°41' W 009°22'0 0.4
2018-Sep-16 16:20N 38°40' W 009°22'2 3.2
2018-Sep-16 15:43N 38°42' W 009°24'1 0.0
2018-Sep-15 14:15N 38°42' W 009°25'0 1.1
2018-Sep-15 13:55N 38°42' W 009°25'2 4.8
2018-Sep-15 13:29N 38°40' W 009°23'3 5.7
2018-Sep-15 13:02N 38°37' W 009°23'0 5.6
2018-Sep-15 13:00N 38°37' W 009°23'1 2.1
2018-Sep-15 12:27N 38°36' W 009°24'2 5.2
2018-Sep-15 12:01N 38°38' W 009°25'0 4.6
2018-Sep-15 11:55N 38°39' W 009°26'3 4.9
2018-Sep-15 11:22N 38°42' W 009°25'0 0.8
2018-Sep-15 10:58N 38°42' W 009°25'  

Dump ship's entire track history